createdAt,value
2023-03-15T00:02:25.142Z,0.80
2023-03-15T00:07:28.502Z,0.87
2023-03-15T00:12:32.128Z,1.03
2023-03-15T00:17:36.768Z,1.10
2023-03-15T00:22:41.368Z,1.03
2023-03-15T00:27:44.440Z,1.20
2023-03-15T00:32:48.882Z,1.70
2023-03-15T00:37:56.147Z,1.73
2023-03-15T00:42:59.402Z,1.83
2023-03-15T00:48:06.177Z,1.63
2023-03-15T00:53:11.669Z,1.40
2023-03-15T00:58:14.823Z,1.77
2023-03-15T01:03:19.300Z,1.80
2023-03-15T01:08:24.216Z,1.80
2023-03-15T01:13:27.368Z,1.93
2023-03-15T01:18:35.188Z,2.60
2023-03-15T01:23:39.039Z,2.80
2023-03-15T01:28:42.405Z,1.97
2023-03-15T01:33:46.988Z,2.20
2023-03-15T01:38:50.936Z,3.00
2023-03-15T01:43:57.234Z,3.00
2023-03-15T01:49:07.179Z,2.73
2023-03-15T01:54:18.398Z,3.33
2023-03-15T01:59:27.143Z,3.50
2023-03-15T02:04:36.770Z,3.33
2023-03-15T02:09:48.710Z,2.73
2023-03-15T02:14:54.198Z,2.60
2023-03-15T02:20:13.423Z,2.53
2023-03-15T02:25:25.423Z,2.20
2023-03-15T02:30:30.335Z,2.10
2023-03-15T02:35:34.473Z,2.60
2023-03-15T02:40:37.682Z,2.27
2023-03-15T02:45:42.530Z,2.00
2023-03-15T02:50:45.811Z,1.73
2023-03-15T02:55:49.036Z,1.77
2023-03-15T03:00:55.351Z,1.70
2023-03-15T03:05:58.726Z,1.73
2023-03-15T03:11:01.884Z,1.80
2023-03-15T03:16:08.420Z,1.50
2023-03-15T03:21:12.267Z,1.57
2023-03-15T03:26:17.816Z,1.30
2023-03-15T03:31:27.543Z,1.33
2023-03-15T03:36:32.844Z,1.40
2023-03-15T03:41:36.174Z,1.80
2023-03-15T03:46:41.452Z,1.10
2023-03-15T03:51:44.738Z,1.20
2023-03-15T03:56:48.067Z,1.27
2023-03-15T04:01:52.742Z,1.10
2023-03-15T04:06:55.852Z,1.60
2023-03-15T04:12:07.553Z,2.23
2023-03-15T04:17:14.300Z,1.57
2023-03-15T04:22:19.555Z,1.47
2023-03-15T04:27:34.840Z,2.13
2023-03-15T04:32:47.512Z,2.03
2023-03-15T04:37:59.319Z,1.70
2023-03-15T04:43:31.630Z,1.87
2023-03-15T04:48:52.938Z,1.73
2023-03-15T04:54:09.908Z,1.50
2023-03-15T04:59:41.573Z,1.90
2023-03-15T05:05:06.124Z,1.90
2023-03-15T05:10:23.561Z,1.50
2023-03-15T05:15:49.391Z,1.80
2023-03-15T05:21:24.969Z,1.80
2023-03-15T05:26:47.153Z,1.50
2023-03-15T05:32:12.495Z,1.60
2023-03-15T05:37:16.987Z,1.50
2023-03-15T05:42:37.868Z,1.50
2023-03-15T05:47:59.705Z,1.20
2023-03-15T05:53:30.477Z,1.40
2023-03-15T05:58:36.472Z,1.83
2023-03-15T06:03:42.671Z,1.57
2023-03-15T06:08:55.896Z,1.40
2023-03-15T06:13:59.165Z,1.40
2023-03-15T06:19:14.426Z,1.20
2023-03-15T06:24:19.507Z,1.20
2023-03-15T06:29:23.891Z,1.30
2023-03-15T06:34:28.993Z,1.57
2023-03-15T06:39:35.591Z,1.13
2023-03-15T06:44:38.919Z,1.20
2023-03-15T06:49:44.255Z,1.30
2023-03-15T06:54:50.941Z,1.30
2023-03-15T06:59:55.137Z,1.70
2023-03-15T07:04:58.364Z,1.93
2023-03-15T07:10:03.047Z,1.90
2023-03-15T07:15:06.948Z,1.47
2023-03-15T07:20:11.650Z,1.97
2023-03-15T07:25:23.822Z,1.60
2023-03-15T07:30:28.211Z,1.73
2023-03-15T07:35:31.324Z,2.03
2023-03-15T07:40:35.768Z,1.83
2023-03-15T07:45:41.498Z,1.97
2023-03-15T07:50:44.699Z,1.50
2023-03-15T07:55:49.810Z,1.33
2023-03-15T08:00:56.291Z,1.73
2023-03-15T08:05:59.376Z,1.90
2023-03-15T08:11:06.228Z,1.83
2023-03-15T08:16:11.011Z,1.60
2023-03-15T08:21:14.234Z,1.27
2023-03-15T08:26:18.870Z,1.77
2023-03-15T08:31:22.070Z,2.17
2023-03-15T08:36:25.262Z,1.70
2023-03-15T08:41:29.864Z,1.60
2023-03-15T08:46:33.502Z,1.90
2023-03-15T08:51:36.945Z,1.70
2023-03-15T08:56:42.226Z,2.00
2023-03-15T09:01:45.972Z,2.00
2023-03-15T09:06:49.297Z,3.17
2023-03-15T09:11:55.644Z,1.87
2023-03-15T09:17:00.960Z,1.90
2023-03-15T09:22:16.225Z,1.50
2023-03-15T09:27:21.731Z,1.53
2023-03-15T09:32:25.111Z,2.10
2023-03-15T09:37:29.055Z,1.90
2023-03-15T09:42:43.251Z,1.60
2023-03-15T09:47:56.164Z,1.57
2023-03-15T09:53:05.200Z,1.30
2023-03-15T09:58:15.713Z,1.47
2023-03-15T10:03:24.180Z,1.30
2023-03-15T10:08:27.870Z,1.27
2023-03-15T10:13:47.912Z,1.97
2023-03-15T10:19:03.973Z,1.43
2023-03-15T10:24:16.266Z,1.03
2023-03-15T10:29:22.647Z,1.20
2023-03-15T10:34:27.067Z,1.30
2023-03-15T10:39:31.909Z,1.30
2023-03-15T10:44:38.210Z,1.30
2023-03-15T10:49:42.514Z,1.83
2023-03-15T10:55:12.922Z,1.10
2023-03-15T11:00:29.659Z,1.10
2023-03-15T11:05:44.313Z,1.00
2023-03-15T11:10:58.006Z,2.33
2023-03-15T11:16:06.777Z,1.60
2023-03-15T11:21:14.568Z,1.47
2023-03-15T11:26:31.467Z,1.10
2023-03-15T11:31:37.367Z,1.13
2023-03-15T11:36:45.363Z,1.10
2023-03-15T11:41:53.827Z,1.20
2023-03-15T11:47:05.615Z,1.23
2023-03-15T11:52:09.512Z,1.10
2023-03-15T11:57:38.046Z,1.10
2023-03-15T12:02:51.107Z,1.30
2023-03-15T12:08:17.035Z,1.00
2023-03-15T12:13:26.972Z,1.00
2023-03-15T12:18:34.650Z,1.10
2023-03-15T12:23:43.045Z,0.90
2023-03-15T12:28:53.760Z,1.20
2023-03-15T12:34:01.374Z,1.00
2023-03-15T12:39:22.030Z,0.90
2023-03-15T12:44:39.663Z,1.00
2023-03-15T12:49:45.836Z,1.77
2023-03-15T12:54:52.747Z,0.90
2023-03-15T12:59:58.326Z,1.10
2023-03-15T13:05:16.769Z,1.40
2023-03-15T13:10:41.136Z,1.10
2023-03-15T13:16:02.955Z,0.87
2023-03-15T13:21:16.717Z,0.90
2023-03-15T13:26:35.854Z,0.90
2023-03-15T13:31:40.147Z,0.93
2023-03-15T13:36:47.609Z,1.00
2023-03-15T13:41:51.412Z,0.93
2023-03-15T13:46:55.600Z,1.10
2023-03-15T13:52:00.495Z,0.87
2023-03-15T13:57:08.520Z,1.00
2023-03-15T14:02:19.039Z,1.23
2023-03-15T14:07:37.468Z,1.10
2023-03-15T14:12:40.575Z,0.80
2023-03-15T14:17:53.923Z,0.90
2023-03-15T14:23:04.801Z,1.07
2023-03-15T14:28:14.743Z,0.80
2023-03-15T14:33:28.066Z,1.27
2023-03-15T14:38:37.306Z,1.07
2023-03-15T14:43:40.406Z,0.90
2023-03-15T14:48:43.729Z,1.40
2023-03-15T14:53:53.372Z,0.90
2023-03-15T14:58:56.707Z,1.20
2023-03-15T15:04:05.361Z,0.80
2023-03-15T15:09:11.706Z,0.80
2023-03-15T15:14:15.854Z,1.07
2023-03-15T15:19:18.898Z,0.70
2023-03-15T15:24:26.674Z,0.97
2023-03-15T15:29:29.817Z,0.80
2023-03-15T15:34:34.123Z,0.90
2023-03-15T15:39:38.761Z,1.07
2023-03-15T15:44:45.870Z,1.37
2023-03-15T15:49:49.003Z,0.90
2023-03-15T15:54:53.895Z,0.90
2023-03-15T15:59:56.929Z,1.63
2023-03-15T16:05:00.052Z,0.90
2023-03-15T16:10:08.941Z,1.10
2023-03-15T16:15:13.755Z,1.10
2023-03-15T16:20:18.732Z,1.23
2023-03-15T16:25:26.574Z,0.87
2023-03-15T16:30:31.721Z,1.00
2023-03-15T16:35:37.357Z,0.97
2023-03-15T16:40:44.750Z,1.00
2023-03-15T16:45:48.715Z,0.97
2023-03-15T16:50:51.839Z,1.00
2023-03-15T16:55:56.643Z,1.13
2023-03-15T17:01:02.074Z,1.40
2023-03-15T17:06:06.740Z,1.70
2023-03-15T17:11:11.949Z,1.57
2023-03-15T17:16:16.865Z,1.70
2023-03-15T17:21:24.220Z,2.90
2023-03-15T17:26:34.935Z,4.87
2023-03-15T17:31:39.116Z,3.23
2023-03-15T17:36:43.041Z,2.77
2023-03-15T17:41:49.592Z,2.83
2023-03-15T17:46:53.083Z,2.40
2023-03-15T17:51:57.223Z,2.83
2023-03-15T17:57:04.864Z,2.70
2023-03-15T18:02:15.915Z,2.73
2023-03-15T18:07:21.598Z,2.53
2023-03-15T18:12:27.116Z,2.77
2023-03-15T18:17:30.787Z,2.90
2023-03-15T18:22:35.025Z,2.37
2023-03-15T18:27:40.251Z,2.57
2023-03-15T18:32:43.724Z,3.00
2023-03-15T18:37:47.262Z,2.60
2023-03-15T18:42:52.275Z,2.40
2023-03-15T18:47:55.562Z,2.17
2023-03-15T18:52:59.006Z,3.73
2023-03-15T18:58:09.060Z,4.40
2023-03-15T19:03:13.532Z,3.50
2023-03-15T19:08:17.160Z,3.30
2023-03-15T19:13:25.150Z,4.03
2023-03-15T19:18:28.972Z,6.57
2023-03-15T19:23:34.301Z,3.40
2023-03-15T19:28:39.217Z,3.47
2023-03-15T19:33:42.629Z,3.20
2023-03-15T19:38:46.613Z,3.13
2023-03-15T19:43:51.656Z,3.37
2023-03-15T19:48:54.737Z,5.00
2023-03-15T19:53:58.209Z,3.43
2023-03-15T19:59:04.499Z,2.83
2023-03-15T20:04:07.920Z,2.80
2023-03-15T20:09:12.186Z,3.30
2023-03-15T20:14:21.027Z,3.00
2023-03-15T20:19:30.624Z,3.33
2023-03-15T20:24:33.819Z,3.23
2023-03-15T20:29:38.483Z,4.30
2023-03-15T20:34:42.692Z,4.90
2023-03-15T20:39:45.980Z,3.57
2023-03-15T20:44:50.807Z,4.00
2023-03-15T20:49:54.278Z,3.63
2023-03-15T20:54:57.442Z,3.60
2023-03-15T21:00:11.779Z,5.30
2023-03-15T21:05:16.522Z,4.40
2023-03-15T21:10:21.454Z,3.73
2023-03-15T21:15:27.235Z,3.50
2023-03-15T21:20:31.141Z,4.40
2023-03-15T21:25:35.160Z,3.37
2023-03-15T21:30:42.570Z,3.17
2023-03-15T21:35:46.582Z,3.40
2023-03-15T21:40:52.934Z,3.77
2023-03-15T21:46:01.749Z,3.43
2023-03-15T21:51:07.421Z,3.97
2023-03-15T21:56:18.881Z,2.90
2023-03-15T22:01:23.950Z,3.20
2023-03-15T22:06:27.065Z,3.40
2023-03-15T22:11:30.229Z,3.60
2023-03-15T22:16:34.762Z,3.10
2023-03-15T22:21:37.938Z,3.60
2023-03-15T22:26:43.018Z,3.33
2023-03-15T22:31:47.451Z,3.53
2023-03-15T22:36:50.547Z,2.93
2023-03-15T22:41:53.741Z,3.50
2023-03-15T22:46:58.496Z,3.70
2023-03-15T22:52:01.724Z,3.23
2023-03-15T22:57:06.008Z,3.30
2023-03-15T23:02:12.093Z,3.50
2023-03-15T23:07:15.298Z,3.53
2023-03-15T23:12:24.314Z,3.40
2023-03-15T23:17:31.813Z,3.30
2023-03-15T23:22:35.247Z,3.50
2023-03-15T23:27:38.953Z,3.83
2023-03-15T23:32:43.689Z,3.53
2023-03-15T23:37:48.015Z,3.40
2023-03-15T23:42:59.116Z,3.77
2023-03-15T23:48:06.573Z,3.97
2023-03-15T23:53:12.961Z,3.57
2023-03-15T23:58:16.241Z,3.73
